Time;durP1;ratioP1;P1;durP2;ratioP2;P2;SDS_P1;SDS_P2;PMS_P1;PMS_P2;Temp;Humidity;BMP_temperature;BMP_pressure;BME280_temperature;BME280_humidity;BME280_pressure;Samples;Min_cycle;Max_cycle;Signal;HPM_P1;HPM_P2
2022/08/12 00:44:55;;;;;;;1.58;0.30;;;15.40;99.90;;;;;;5007701;28;20144;-86
2022/08/12 00:47:24;;;;;;;0.80;0.50;;;15.40;99.90;;;;;;4996032;28;20033;-81
2022/08/12 00:49:52;;;;;;;0.63;0.30;;;15.50;99.90;;;;;;5003804;28;20049;-82
2022/08/12 00:52:21;;;;;;;0.95;0.30;;;15.60;99.90;;;;;;5012489;28;20099;-79
2022/08/12 00:54:57;;;;;;;0.60;0.20;;;15.60;99.90;;;;;;5017027;28;20060;-84
2022/08/12 00:57:36;;;;;;;0.50;0.40;;;15.60;99.90;;;;;;5011621;28;20033;-83
2022/08/12 01:00:09;;;;;;;2.85;0.43;;;15.70;99.90;;;;;;5012791;28;20022;-83
2022/08/12 01:02:39;;;;;;;1.27;0.30;;;15.60;99.90;;;;;;5012008;28;20079;-78
2022/08/12 01:13:35;;;;;;;2.78;1.00;;;15.60;99.90;;;;;;5008454;28;20391;-83
2022/08/12 01:16:06;;;;;;;3.08;0.60;;;15.50;99.90;;;;;;5007490;28;20026;-80
2022/08/12 01:18:38;;;;;;;1.73;0.60;;;15.60;99.90;;;;;;5010699;28;20033;-75
2022/08/12 01:21:17;;;;;;;4.15;0.73;;;15.50;99.90;;;;;;5008722;28;20037;-76
2022/08/12 01:24:17;;;;;;;4.55;0.45;;;15.40;99.90;;;;;;5009545;28;20060;-85
2022/08/12 01:26:46;;;;;;;5.82;1.20;;;15.40;99.90;;;;;;5009162;28;20047;-84
2022/08/12 01:29:20;;;;;;;3.40;0.60;;;15.40;99.90;;;;;;5019757;28;20029;-81
2022/08/12 01:31:56;;;;;;;2.78;0.50;;;15.30;99.90;;;;;;5011339;28;20022;-82
2022/08/12 01:34:29;;;;;;;2.05;0.38;;;15.30;99.90;;;;;;5007700;28;20052;-83
2022/08/12 01:37:01;;;;;;;2.63;0.50;;;15.30;99.90;;;;;;4999228;28;20168;-85
2022/08/12 01:39:47;;;;;;;1.65;0.63;;;15.30;99.90;;;;;;5001995;28;20028;-84
2022/08/12 01:42:20;;;;;;;2.22;0.47;;;15.30;99.90;;;;;;5011048;28;20132;-82
2022/08/12 01:44:49;;;;;;;2.50;0.45;;;15.40;99.90;;;;;;5008783;28;20042;-82
2022/08/12 01:47:22;;;;;;;3.63;0.90;;;15.60;99.90;;;;;;5008618;28;20037;-84
2022/08/12 01:50:08;;;;;;;4.85;1.23;;;15.70;99.90;;;;;;5004954;28;20141;-83
2022/08/12 01:52:53;;;;;;;2.03;0.80;;;15.90;99.90;;;;;;4998447;28;20033;-87
2022/08/12 01:55:27;;;;;;;1.30;0.60;;;16.10;99.90;;;;;;5001833;28;20034;-88
2022/08/12 01:58:18;;;;;;;1.20;0.50;;;16.20;99.90;;;;;;5002699;28;20034;-90
2022/08/12 02:00:57;;;;;;;1.00;0.40;;;16.70;99.90;;;;;;5009817;28;20477;-79
2022/08/12 02:12:56;;;;;;;1.55;0.47;;;17.40;99.90;;;;;;5010753;28;20041;-86
2022/08/12 02:15:41;;;;;;;0.57;0.20;;;17.40;99.90;;;;;;5007611;28;20492;-84
2022/08/12 02:18:24;;;;;;;0.40;0.30;;;17.40;99.90;;;;;;5015783;28;20054;-85
2022/08/12 02:21:15;;;;;;;0.93;0.30;;;17.50;99.90;;;;;;5003845;28;20034;-82
2022/08/12 02:23:43;;;;;;;0.47;0.25;;;17.60;99.90;;;;;;5005902;28;20092;-87
2022/08/12 02:26:14;;;;;;;0.52;0.30;;;17.80;99.90;;;;;;5013180;28;20041;-85
2022/08/12 02:28:42;;;;;;;1.08;0.30;;;17.80;99.90;;;;;;5011804;28;20033;-82
2022/08/12 02:31:10;;;;;;;1.08;0.20;;;17.80;99.90;;;;;;5003885;28;20381;-80
2022/08/12 02:33:38;;;;;;;1.05;0.20;;;17.80;99.90;;;;;;5001311;28;20090;-81
2022/08/12 02:36:06;;;;;;;0.40;0.20;;;17.90;99.90;;;;;;5000257;28;20030;-80
2022/08/12 02:38:35;;;;;;;1.02;0.40;;;18.90;99.80;;;;;;5003180;28;20099;-82
2022/08/12 02:41:05;;;;;;;0.85;0.22;;;20.00;98.50;;;;;;5001599;28;20026;-81
2022/08/12 02:44:08;;;;;;;0.70;0.20;;;20.60;97.40;;;;;;5000973;28;20037;-84
2022/08/12 02:46:36;;;;;;;0.10;0.10;;;20.30;97.30;;;;;;4989732;28;20026;-84
2022/08/12 02:49:08;;;;;;;1.42;0.20;;;19.70;97.30;;;;;;5000603;28;20437;-83
2022/08/12 02:51:41;;;;;;;0.47;0.43;;;19.20;98.10;;;;;;5020587;28;20054;-84
2022/08/12 02:54:09;;;;;;;0.20;0.10;;;19.00;98.40;;;;;;5005701;28;20070;-84
2022/08/12 02:56:39;;;;;;;0.32;0.25;;;18.80;98.20;;;;;;5010545;28;20448;-86
2022/08/12 02:59:15;;;;;;;0.88;0.10;;;18.50;98.80;;;;;;5013374;28;20132;-81
2022/08/12 03:01:52;;;;;;;0.10;0.10;;;18.40;99.00;;;;;;5013411;28;20514;-84
2022/08/12 03:04:34;;;;;;;1.35;0.35;;;18.30;99.40;;;;;;5024291;28;20046;-81
2022/08/12 03:07:25;;;;;;;0.22;0.20;;;18.40;99.50;;;;;;5000139;28;20437;-86
2022/08/12 03:10:23;;;;;;;3.83;0.30;;;18.50;99.60;;;;;;5027306;28;20017;-85
2022/08/12 03:12:56;;;;;;;0.75;0.30;;;18.40;99.50;;;;;;5005186;28;20042;-81
2022/08/12 03:15:26;;;;;;;0.77;0.40;;;18.40;99.80;;;;;;5012692;28;20042;-80
2022/08/12 03:18:02;;;;;;;1.63;0.20;;;18.20;99.60;;;;;;5009062;28;20030;-82
2022/08/12 03:20:33;;;;;;;2.13;0.40;;;18.10;99.90;;;;;;5010923;28;20235;-80
2022/08/12 03:23:05;;;;;;;0.10;0.10;;;17.90;99.90;;;;;;5007226;28;20031;-77
2022/08/12 03:25:37;;;;;;;2.35;0.43;;;17.90;99.90;;;;;;5007384;28;20080;-82
2022/08/12 03:28:08;;;;;;;4.07;0.30;;;17.80;99.90;;;;;;5011957;28;20030;-83
2022/08/12 03:30:42;;;;;;;2.03;0.38;;;17.90;99.90;;;;;;5015429;28;20068;-74
2022/08/12 03:33:12;;;;;;;0.50;0.20;;;17.90;99.90;;;;;;5003752;28;20454;-90
2022/08/12 03:35:45;;;;;;;0.95;0.25;;;17.80;99.90;;;;;;5006031;28;20041;-82
2022/08/12 03:38:14;;;;;;;0.85;0.32;;;17.70;99.90;;;;;;5013835;28;20484;-85
2022/08/12 04:01:56;;;;;;;0.35;0.20;;;17.10;99.90;;;;;;5008709;28;20133;-80
2022/08/12 04:04:33;;;;;;;0.45;0.20;;;17.10;99.90;;;;;;5010032;28;20030;-81
2022/08/12 04:07:09;;;;;;;0.47;0.30;;;17.00;99.90;;;;;;4993671;28;20537;-80
2022/08/12 04:09:43;;;;;;;;;;;16.90;99.90;;;;;;5019729;28;20468;-85
2022/08/12 04:14:57;;;;;;;1.48;0.30;;;16.90;99.90;;;;;;5010819;28;20045;-83
2022/08/12 04:17:26;;;;;;;2.42;0.43;;;16.80;99.90;;;;;;4997239;28;20037;-79
2022/08/12 04:19:56;;;;;;;3.42;0.60;;;16.80;99.90;;;;;;4997121;28;20081;-84
2022/08/12 04:22:29;;;;;;;1.58;0.50;;;16.80;99.90;;;;;;5010189;28;20037;-80
2022/08/12 04:25:00;;;;;;;1.40;0.30;;;16.80;99.90;;;;;;5010330;28;20038;-80
2022/08/12 04:27:31;;;;;;;0.98;0.30;;;16.80;99.90;;;;;;5003462;28;20030;-87
2022/08/12 04:29:58;;;;;;;0.30;0.20;;;16.80;99.90;;;;;;5023346;28;20465;-82
2022/08/12 04:32:26;;;;;;;0.55;0.30;;;16.80;99.90;;;;;;5002604;28;20104;-83
2022/08/12 04:34:54;;;;;;;0.50;0.20;;;16.80;99.90;;;;;;4997346;28;20034;-83
2022/08/12 04:37:22;;;;;;;0.40;0.30;;;16.80;99.90;;;;;;5012177;28;20017;-83
2022/08/12 04:39:50;;;;;;;2.58;0.57;;;16.80;99.90;;;;;;5002853;28;20432;-82
2022/08/12 04:42:18;;;;;;;0.40;0.20;;;16.80;99.90;;;;;;5002521;28;20491;-81
2022/08/12 04:44:47;;;;;;;1.67;0.45;;;16.90;99.90;;;;;;5018491;28;20129;-86
2022/08/12 04:47:15;;;;;;;0.90;0.32;;;16.90;99.90;;;;;;5002131;28;20087;-83
2022/08/12 04:49:46;;;;;;;0.32;0.30;;;16.90;99.90;;;;;;5000007;28;20080;-78
2022/08/12 04:52:15;;;;;;;0.25;0.20;;;16.80;99.90;;;;;;5025500;28;20030;-81
2022/08/12 04:54:42;;;;;;;0.50;0.20;;;16.90;99.90;;;;;;5009254;28;20073;-76
2022/08/12 04:57:10;;;;;;;0.50;0.28;;;16.90;99.90;;;;;;5002562;28;20034;-85
2022/08/12 04:59:37;;;;;;;0.82;0.65;;;16.90;99.90;;;;;;5013043;28;20034;-81
2022/08/12 05:02:05;;;;;;;2.10;0.40;;;16.90;99.90;;;;;;5008615;28;20049;-80
2022/08/12 05:04:37;;;;;;;0.60;0.40;;;16.90;99.90;;;;;;5008468;28;20736;-82
2022/08/12 05:07:07;;;;;;;1.25;0.20;;;16.90;99.90;;;;;;4997618;28;20026;-79
2022/08/12 05:09:34;;;;;;;0.88;0.50;;;16.90;99.90;;;;;;5001108;28;20198;-75
2022/08/12 05:12:02;;;;;;;1.63;0.50;;;16.80;99.90;;;;;;5004660;28;20423;-86
2022/08/12 05:14:30;;;;;;;1.85;0.35;;;16.80;99.90;;;;;;5018653;28;20029;-82
2022/08/12 05:16:59;;;;;;;2.50;0.40;;;16.70;99.90;;;;;;5002164;28;20095;-80
2022/08/12 05:19:26;;;;;;;0.98;0.30;;;16.70;99.90;;;;;;5012313;28;20380;-79
2022/08/12 05:21:53;;;;;;;1.40;0.98;;;16.70;99.90;;;;;;5001631;28;20511;-83
2022/08/12 05:24:21;;;;;;;3.20;0.20;;;16.70;99.90;;;;;;5004568;28;20029;-82
2022/08/12 05:26:48;;;;;;;1.88;0.40;;;16.60;99.90;;;;;;4999937;28;20049;-83
2022/08/12 05:29:18;;;;;;;0.63;0.20;;;16.60;99.90;;;;;;5005787;28;20049;-83
2022/08/12 05:31:48;;;;;;;1.08;0.55;;;16.50;99.90;;;;;;5001041;28;20033;-84
2022/08/12 05:34:17;;;;;;;0.32;0.20;;;16.50;99.90;;;;;;5010048;28;20052;-77
2022/08/12 05:36:44;;;;;;;0.40;0.38;;;16.50;99.90;;;;;;5010647;28;20026;-84
2022/08/12 05:39:12;;;;;;;0.43;0.20;;;16.40;99.90;;;;;;5010812;28;20041;-85
2022/08/12 05:41:40;;;;;;;1.27;0.20;;;16.30;99.90;;;;;;5008095;28;20104;-87
2022/08/12 05:44:12;;;;;;;2.88;0.70;;;16.20;99.90;;;;;;4999528;28;20084;-79
2022/08/12 05:46:40;;;;;;;0.85;0.68;;;16.10;99.90;;;;;;5006350;28;20099;-85
2022/08/12 05:49:11;;;;;;;1.42;0.30;;;16.00;99.90;;;;;;5010916;28;20546;-84
2022/08/12 05:51:38;;;;;;;1.65;0.20;;;15.90;99.90;;;;;;5000484;28;20054;-84
2022/08/12 05:54:06;;;;;;;1.55;0.50;;;15.90;99.90;;;;;;5005515;28;20034;-86
2022/08/12 05:56:35;;;;;;;0.60;0.30;;;15.80;99.90;;;;;;5007487;28;20037;-84
2022/08/12 05:59:06;;;;;;;1.45;0.57;;;15.80;99.90;;;;;;5010589;28;20029;-78
2022/08/12 06:01:34;;;;;;;0.75;0.30;;;15.80;99.90;;;;;;5015200;28;20036;-79
2022/08/12 06:04:02;;;;;;;0.47;0.30;;;15.70;99.90;;;;;;5012792;28;20029;-80
2022/08/12 06:06:34;;;;;;;0.35;0.28;;;15.70;99.90;;;;;;5001552;28;20022;-79
2022/08/12 06:09:01;;;;;;;0.75;0.52;;;15.70;99.90;;;;;;5016103;28;20030;-81
2022/08/12 06:11:29;;;;;;;1.30;0.30;;;15.70;99.90;;;;;;5021234;28;20025;-79
2022/08/12 06:13:57;;;;;;;1.48;0.40;;;15.60;99.90;;;;;;5013257;28;20877;-79
2022/08/12 06:16:25;;;;;;;1.00;0.40;;;15.50;99.90;;;;;;5012012;28;20120;-80
2022/08/12 06:18:53;;;;;;;2.90;0.50;;;15.40;99.90;;;;;;5028221;28;20024;-79
2022/08/12 06:21:22;;;;;;;1.50;0.50;;;15.30;99.90;;;;;;5010467;28;20080;-82
2022/08/12 06:23:50;;;;;;;0.75;0.47;;;15.20;99.90;;;;;;5014135;28;20109;-81
2022/08/12 06:26:19;;;;;;;1.80;0.73;;;15.20;99.90;;;;;;5009005;28;20083;-82
2022/08/12 06:28:49;;;;;;;0.70;0.40;;;15.20;99.90;;;;;;5008457;28;20038;-79
2022/08/12 06:31:19;;;;;;;1.17;0.35;;;15.10;99.90;;;;;;5012133;28;20110;-82
2022/08/12 06:33:48;;;;;;;0.52;0.38;;;15.10;99.90;;;;;;5026816;28;20037;-80
2022/08/12 06:36:17;;;;;;;1.23;0.82;;;15.10;99.90;;;;;;5005532;28;20030;-80
2022/08/12 06:38:48;;;;;;;2.08;0.75;;;15.10;99.90;;;;;;5003112;28;20022;-83
2022/08/12 06:44:02;;;;;;;4.60;0.73;;;15.10;99.90;;;;;;5005040;28;20376;-81
2022/08/12 06:46:30;;;;;;;2.03;0.57;;;15.10;99.90;;;;;;5016548;28;20041;-80
2022/08/12 06:48:58;;;;;;;1.85;0.77;;;15.10;99.90;;;;;;5022321;28;20025;-83
2022/08/12 06:51:30;;;;;;;2.33;0.95;;;15.00;99.90;;;;;;5023404;28;20041;-78
2022/08/12 06:54:00;;;;;;;1.58;0.80;;;15.00;99.90;;;;;;5002132;28;20045;-72
2022/08/12 06:56:28;;;;;;;3.35;1.73;;;15.00;99.90;;;;;;5012662;28;20029;-79
2022/08/12 06:58:56;;;;;;;2.13;1.10;;;15.00;99.90;;;;;;5011076;28;20033;-80
2022/08/12 07:01:30;;;;;;;2.55;0.90;;;15.00;99.90;;;;;;5007934;28;20052;-79
2022/08/12 07:03:57;;;;;;;2.35;0.60;;;14.90;99.90;;;;;;5016643;28;20034;-82
2022/08/12 07:06:25;;;;;;;1.05;0.88;;;14.90;99.90;;;;;;5006873;28;20030;-78
2022/08/12 07:08:53;;;;;;;2.95;0.93;;;14.90;99.90;;;;;;5010993;28;20033;-76
2022/08/12 07:11:20;;;;;;;3.42;0.93;;;14.80;99.90;;;;;;5016963;28;20464;-79
2022/08/12 07:13:51;;;;;;;2.10;1.35;;;14.80;99.90;;;;;;5013377;28;20050;-80
2022/08/12 07:16:20;;;;;;;3.00;1.58;;;14.80;99.90;;;;;;5000620;28;20069;-82
2022/08/12 07:18:52;;;;;;;1.88;1.30;;;14.70;99.90;;;;;;5007844;28;20038;-80
2022/08/12 07:21:20;;;;;;;4.43;2.83;;;14.60;99.90;;;;;;5023163;28;20029;-79
2022/08/12 07:23:48;;;;;;;3.42;1.20;;;14.60;99.90;;;;;;5001470;28;20101;-82
2022/08/12 07:26:15;;;;;;;2.22;1.30;;;14.50;99.90;;;;;;5009453;28;20026;-78
2022/08/12 07:28:44;;;;;;;2.45;1.98;;;14.50;99.90;;;;;;5013330;28;20583;-85
2022/08/12 07:31:12;;;;;;;2.28;1.10;;;14.40;99.90;;;;;;4999821;28;20027;-79
2022/08/12 07:33:41;;;;;;;1.77;1.08;;;14.40;99.90;;;;;;5020251;28;20049;-78
2022/08/12 07:36:12;;;;;;;3.92;0.95;;;14.30;99.90;;;;;;5007190;28;20540;-81
2022/08/12 07:38:45;;;;;;;1.35;0.70;;;14.30;99.90;;;;;;5017829;28;20033;-78
2022/08/12 07:41:20;;;;;;;1.42;0.80;;;14.30;99.90;;;;;;4998465;28;20030;-76
2022/08/12 07:43:50;;;;;;;2.42;1.77;;;14.30;99.90;;;;;;5021990;28;20033;-82
2022/08/12 07:46:22;;;;;;;2.67;1.55;;;14.20;99.90;;;;;;5014515;28;20025;-79
2022/08/12 07:48:55;;;;;;;2.35;1.20;;;14.20;99.90;;;;;;5011151;28;20022;-77
2022/08/12 07:51:24;;;;;;;3.85;2.00;;;14.20;99.90;;;;;;5017760;28;20478;-78
2022/08/12 07:53:52;;;;;;;2.70;2.50;;;14.20;99.90;;;;;;5026139;28;20138;-78
2022/08/12 07:56:19;;;;;;;3.50;1.90;;;14.10;99.90;;;;;;5007722;28;20033;-78
2022/08/12 07:58:47;;;;;;;3.00;2.70;;;14.10;99.90;;;;;;5005608;28;20029;-77
2022/08/12 08:01:20;;;;;;;3.63;1.95;;;14.10;99.90;;;;;;4997266;28;20036;-76
2022/08/12 08:06:41;;;;;;;5.82;3.53;;;13.90;99.90;;;;;;5003596;28;20107;-78
2022/08/12 08:09:11;;;;;;;5.63;3.03;;;13.90;99.90;;;;;;5005219;28;20018;-78
2022/08/12 08:14:27;;;;;;;3.28;1.85;;;13.80;99.90;;;;;;5000144;28;20457;-75
2022/08/12 08:16:56;;;;;;;1.88;1.55;;;13.80;99.90;;;;;;4996338;28;20022;-78
2022/08/12 08:19:25;;;;;;;2.65;1.40;;;13.80;99.90;;;;;;4999156;28;20037;-77
2022/08/12 08:21:54;;;;;;;2.40;1.38;;;13.80;99.90;;;;;;5000500;28;20101;-74
2022/08/12 08:24:24;;;;;;;2.70;1.25;;;13.70;99.90;;;;;;5005373;28;20022;-74
2022/08/12 08:26:55;;;;;;;2.00;1.50;;;13.70;99.90;;;;;;4995403;28;20121;-76
2022/08/12 08:29:24;;;;;;;2.70;1.67;;;13.80;99.90;;;;;;4997370;28;20479;-75
2022/08/12 08:32:00;;;;;;;2.97;1.90;;;13.70;99.90;;;;;;5000153;28;20036;-75
2022/08/12 08:34:30;;;;;;;6.55;3.33;;;13.70;99.90;;;;;;4998229;28;20059;-77
2022/08/12 08:36:58;;;;;;;2.80;1.92;;;13.70;99.90;;;;;;4999008;28;20037;-77
2022/08/12 08:39:26;;;;;;;6.93;2.30;;;13.70;99.90;;;;;;4995942;28;20060;-77
2022/08/12 08:44:43;;;;;;;2.80;2.47;;;13.70;99.90;;;;;;4996253;28;20041;-78
2022/08/12 08:47:12;;;;;;;4.78;2.40;;;13.70;99.90;;;;;;4998917;28;20029;-79
2022/08/12 08:49:40;;;;;;;5.30;3.53;;;13.70;99.90;;;;;;4997695;28;20084;-77
2022/08/12 08:52:09;;;;;;;4.70;3.58;;;13.70;99.90;;;;;;5003472;28;20029;-78
2022/08/12 08:54:37;;;;;;;11.90;6.85;;;13.60;99.90;;;;;;5005209;28;20515;-76
2022/08/12 08:57:08;;;;;;;7.60;3.55;;;13.70;99.90;;;;;;4997647;28;20457;-78
2022/08/12 08:59:35;;;;;;;5.95;2.70;;;13.60;99.90;;;;;;4999672;28;20057;-77
2022/08/12 09:02:03;;;;;;;4.28;2.55;;;13.60;99.90;;;;;;4998725;28;20133;-76
2022/08/12 09:04:30;;;;;;;6.53;2.97;;;13.70;99.90;;;;;;4995885;28;20029;-77
2022/08/12 09:06:59;;;;;;;4.07;2.72;;;13.70;99.90;;;;;;5013955;28;20034;-78
2022/08/12 09:09:26;;;;;;;4.18;2.63;;;13.70;99.90;;;;;;4996447;28;20162;-79
2022/08/12 09:14:42;;;;;;;3.50;2.33;;;13.70;99.90;;;;;;5000136;28;20073;-74
2022/08/12 09:17:12;;;;;;;2.78;2.30;;;13.70;99.90;;;;;;5002825;28;20130;-77
2022/08/12 09:19:40;;;;;;;3.50;3.20;;;13.70;99.90;;;;;;4997035;28;20117;-79
2022/08/12 09:22:08;;;;;;;3.50;2.90;;;13.70;99.90;;;;;;4998568;28;20034;-79
2022/08/12 09:24:36;;;;;;;8.07;2.75;;;13.70;99.90;;;;;;4995568;28;20022;-79
2022/08/12 09:27:05;;;;;;;13.52;7.35;;;13.70;99.90;;;;;;4999636;28;20037;-77
2022/08/12 09:29:33;;;;;;;8.93;3.67;;;13.70;99.90;;;;;;4999313;28;20029;-76
2022/08/12 09:32:05;;;;;;;3.78;2.90;;;13.70;99.90;;;;;;4998548;28;20440;-77
2022/08/12 09:34:33;;;;;;;4.50;2.65;;;13.70;99.90;;;;;;4995861;28;20041;-77
2022/08/12 09:37:01;;;;;;;3.08;2.58;;;13.70;99.90;;;;;;4996994;28;20129;-77
2022/08/12 09:39:30;;;;;;;5.63;3.58;;;13.70;99.90;;;;;;4996216;28;20080;-78
2022/08/12 09:47:28;;;;;;;4.18;3.38;;;13.70;99.90;;;;;;4996715;28;20438;-77
2022/08/12 09:49:56;;;;;;;2.95;2.50;;;13.70;99.90;;;;;;4996951;28;20497;-78
2022/08/12 09:52:24;;;;;;;9.38;5.22;;;13.60;99.90;;;;;;4994883;28;20034;-77
2022/08/12 09:54:51;;;;;;;11.85;6.38;;;13.60;99.90;;;;;;5004190;28;20064;-77
2022/08/12 09:57:19;;;;;;;16.00;9.18;;;13.60;99.90;;;;;;5024574;28;20029;-77
2022/08/12 09:59:46;;;;;;;14.60;7.45;;;13.60;99.90;;;;;;5008091;28;20026;-77
2022/08/12 10:02:15;;;;;;;5.32;3.05;;;13.50;99.90;;;;;;4997916;28;20026;-77
2022/08/12 10:04:47;;;;;;;7.82;4.40;;;13.50;99.90;;;;;;5000557;28;20136;-78
2022/08/12 10:07:17;;;;;;;16.17;7.50;;;13.60;99.90;;;;;;5009559;28;20473;-79
2022/08/12 10:09:44;;;;;;;8.25;4.82;;;13.50;99.90;;;;;;5003803;28;20034;-77
2022/08/12 10:14:58;;;;;;;4.70;3.83;;;13.50;99.90;;;;;;5004543;28;20124;-75
2022/08/12 10:17:25;;;;;;;6.43;5.55;;;13.50;99.90;;;;;;4998880;28;20496;-77
2022/08/12 10:19:52;;;;;;;12.02;9.18;;;13.50;99.90;;;;;;5009662;28;20112;-78
2022/08/12 10:22:22;;;;;;;13.00;10.07;;;13.50;99.90;;;;;;5012232;28;20018;-78
2022/08/12 10:30:22;;;;;;;6.03;4.70;;;13.60;99.90;;;;;;5001607;28;20559;-76
2022/08/12 10:33:05;;;;;;;5.07;3.65;;;13.60;99.90;;;;;;4992895;28;20050;-79
2022/08/12 10:35:32;;;;;;;8.02;4.30;;;13.60;99.90;;;;;;5013273;28;20030;-78
2022/08/12 10:38:02;;;;;;;5.32;3.67;;;13.60;99.90;;;;;;5001999;28;20384;-79
2022/08/12 10:40:30;;;;;;;5.53;4.20;;;13.60;99.90;;;;;;5014612;28;20030;-81
2022/08/12 10:45:43;;;;;;;4.30;3.70;;;13.60;99.90;;;;;;5014298;28;20034;-80
2022/08/12 10:48:10;;;;;;;4.63;3.55;;;13.60;99.90;;;;;;4998515;28;20484;-79
2022/08/12 10:50:40;;;;;;;6.38;4.38;;;13.50;99.90;;;;;;5005978;28;20068;-79
2022/08/12 10:53:09;;;;;;;4.90;3.90;;;13.50;99.90;;;;;;4999606;28;20042;-77
2022/08/12 10:55:37;;;;;;;5.90;4.22;;;13.50;99.90;;;;;;5001260;28;20124;-82
2022/08/12 10:58:04;;;;;;;5.93;3.92;;;13.50;99.90;;;;;;5012938;28;20050;-79
2022/08/12 11:00:33;;;;;;;5.15;4.40;;;13.50;99.90;;;;;;5005204;28;20034;-77
2022/08/12 11:03:00;;;;;;;5.60;3.97;;;13.50;99.90;;;;;;4993538;28;20030;-78
2022/08/12 11:05:29;;;;;;;5.43;4.55;;;13.50;99.90;;;;;;5004477;28;20128;-79
2022/08/12 11:07:57;;;;;;;9.75;6.05;;;13.50;99.90;;;;;;5011528;28;20030;-78
2022/08/12 11:10:24;;;;;;;6.75;5.78;;;13.50;99.90;;;;;;5021813;28;20060;-78
2022/08/12 11:12:55;;;;;;;9.55;7.15;;;13.50;99.90;;;;;;5027816;28;20029;-79
2022/08/12 11:15:24;;;;;;;11.98;8.80;;;13.40;99.90;;;;;;5019158;28;20034;-78
2022/08/12 11:17:52;;;;;;;15.38;9.57;;;13.40;99.90;;;;;;5016107;28;20025;-79
2022/08/12 11:20:19;;;;;;;11.63;9.38;;;13.40;99.90;;;;;;5018485;28;20130;-77
2022/08/12 11:23:03;;;;;;;14.73;9.68;;;13.40;99.90;;;;;;5024657;28;20109;-78
2022/08/12 11:25:30;;;;;;;12.02;10.15;;;13.40;99.90;;;;;;5014823;28;20030;-80
2022/08/12 11:27:58;;;;;;;11.88;9.57;;;13.40;99.90;;;;;;5005275;28;20124;-79
2022/08/12 11:30:25;;;;;;;13.55;10.50;;;13.40;99.90;;;;;;5007363;28;20040;-77
2022/08/12 11:32:52;;;;;;;14.25;10.25;;;13.30;99.90;;;;;;5011673;28;20164;-79
2022/08/12 11:35:20;;;;;;;12.68;9.18;;;13.30;99.90;;;;;;5006710;28;20099;-80
2022/08/12 11:37:47;;;;;;;15.70;11.63;;;13.30;99.90;;;;;;5011086;28;20123;-79
2022/08/12 11:40:15;;;;;;;13.43;9.63;;;13.40;99.90;;;;;;5012523;28;20040;-80
2022/08/12 11:42:42;;;;;;;11.93;10.55;;;13.30;99.90;;;;;;5000374;28;20023;-79
2022/08/12 11:45:10;;;;;;;13.93;10.13;;;13.30;99.90;;;;;;5004508;28;20586;-79
2022/08/12 11:47:38;;;;;;;14.52;10.45;;;13.30;99.90;;;;;;4998383;28;20022;-80
2022/08/12 11:50:06;;;;;;;12.38;8.93;;;13.30;99.90;;;;;;5007549;28;20132;-75
2022/08/12 11:52:34;;;;;;;9.50;8.32;;;13.30;99.90;;;;;;5002695;28;20381;-75
2022/08/12 11:55:01;;;;;;;12.23;9.10;;;13.30;99.90;;;;;;5001262;28;20037;-76
2022/08/12 11:57:30;;;;;;;12.98;9.75;;;13.30;99.90;;;;;;5011880;28;20025;-78
2022/08/12 11:59:58;;;;;;;17.05;12.00;;;13.30;99.90;;;;;;5013788;28;20440;-77
2022/08/12 12:02:25;;;;;;;10.43;9.32;;;13.30;99.90;;;;;;5016635;28;20056;-79
2022/08/12 12:04:53;;;;;;;9.60;8.52;;;13.30;99.90;;;;;;5016342;28;21029;-78
2022/08/12 12:07:23;;;;;;;12.98;8.93;;;13.30;99.90;;;;;;5009038;28;20017;-74
2022/08/12 12:09:51;;;;;;;13.02;9.02;;;13.30;99.90;;;;;;5010410;28;20033;-74
2022/08/12 12:12:18;;;;;;;9.30;7.57;;;13.30;99.90;;;;;;5012186;28;20029;-75
2022/08/12 12:14:45;;;;;;;8.95;7.68;;;13.30;99.90;;;;;;5009473;28;20034;-74
2022/08/12 12:17:13;;;;;;;9.75;7.82;;;13.40;99.90;;;;;;5012510;28;20017;-75
2022/08/12 12:19:40;;;;;;;13.18;9.48;;;13.30;99.90;;;;;;5012908;28;20036;-74
2022/08/12 12:22:07;;;;;;;14.13;9.65;;;13.40;99.90;;;;;;5010524;28;20018;-75
2022/08/12 12:24:36;;;;;;;11.93;8.02;;;13.40;99.90;;;;;;5017054;28;20049;-75
2022/08/12 12:27:03;;;;;;;9.10;7.05;;;13.40;99.90;;;;;;5010986;28;20022;-75
2022/08/12 12:29:31;;;;;;;7.35;6.38;;;13.40;99.90;;;;;;5005870;28;20391;-75
2022/08/12 12:31:58;;;;;;;8.13;6.15;;;13.40;99.90;;;;;;5021987;28;20029;-74
2022/08/12 12:34:26;;;;;;;8.77;7.47;;;13.40;99.90;;;;;;5011648;28;20037;-75
2022/08/12 12:36:53;;;;;;;10.45;7.70;;;13.40;99.90;;;;;;5010906;28;20026;-76
2022/08/12 12:39:20;;;;;;;9.02;7.10;;;13.40;99.90;;;;;;5013666;28;20021;-76
2022/08/12 12:41:48;;;;;;;8.45;6.95;;;13.40;99.90;;;;;;5007605;28;20030;-76
2022/08/12 12:44:15;;;;;;;8.32;6.63;;;13.30;99.90;;;;;;5001124;28;20034;-77
2022/08/12 12:46:42;;;;;;;8.57;7.30;;;13.30;99.90;;;;;;4991202;28;20031;-78
2022/08/12 12:49:09;;;;;;;8.20;6.93;;;13.30;99.90;;;;;;5006620;28;20034;-78
2022/08/12 12:51:37;;;;;;;10.63;7.38;;;13.30;99.90;;;;;;4994969;28;20053;-75
2022/08/12 12:54:04;;;;;;;8.35;6.40;;;13.30;99.90;;;;;;5028172;28;20429;-79
2022/08/12 12:56:32;;;;;;;7.63;6.13;;;13.30;99.90;;;;;;5015931;28;20113;-76
2022/08/12 12:58:59;;;;;;;5.97;5.30;;;13.30;99.90;;;;;;5009650;28;20023;-77
2022/08/12 13:01:27;;;;;;;6.07;4.45;;;13.30;99.90;;;;;;4994884;28;20031;-77
2022/08/12 13:03:56;;;;;;;5.03;4.45;;;13.20;99.90;;;;;;5010798;28;20179;-77
2022/08/12 13:06:28;;;;;;;4.80;4.30;;;13.30;99.90;;;;;;5010488;28;20026;-77
2022/08/12 13:08:57;;;;;;;5.05;4.03;;;13.20;99.90;;;;;;5006794;28;20408;-77
2022/08/12 13:11:24;;;;;;;3.15;2.85;;;13.20;99.90;;;;;;4997292;28;20026;-77
2022/08/12 13:13:52;;;;;;;5.93;3.80;;;13.20;99.90;;;;;;5003447;28;20021;-79
2022/08/12 13:16:20;;;;;;;4.10;3.28;;;13.20;99.90;;;;;;5008924;28;20026;-78
2022/08/12 13:18:49;;;;;;;6.45;3.78;;;13.20;99.90;;;;;;5011494;28;20014;-78
2022/08/12 13:21:17;;;;;;;5.35;3.30;;;13.20;99.90;;;;;;5011380;28;20119;-78
2022/08/12 13:23:46;;;;;;;3.45;2.88;;;13.20;99.90;;;;;;5017172;28;20025;-77
2022/08/12 13:26:16;;;;;;;3.97;2.83;;;13.20;99.90;;;;;;5008908;28;20029;-77
2022/08/12 13:28:45;;;;;;;6.10;2.60;;;13.20;99.90;;;;;;5001430;28;20068;-78
2022/08/12 13:31:16;;;;;;;4.40;3.08;;;13.20;99.90;;;;;;5010302;28;20022;-78
2022/08/12 13:33:43;;;;;;;4.97;3.38;;;13.20;99.90;;;;;;5021082;28;20500;-78
2022/08/12 13:36:11;;;;;;;4.10;3.13;;;13.10;99.90;;;;;;4994862;28;20140;-79
2022/08/12 13:38:40;;;;;;;7.05;3.72;;;13.10;99.90;;;;;;5003022;28;20041;-77
2022/08/12 13:41:17;;;;;;;6.97;4.93;;;13.10;99.90;;;;;;5009233;28;20048;-78
2022/08/12 13:43:44;;;;;;;6.30;4.60;;;13.10;99.90;;;;;;5017874;28;20019;-78
2022/08/12 13:46:15;;;;;;;5.82;4.50;;;13.10;99.90;;;;;;5007446;28;20112;-77
2022/08/12 13:48:42;;;;;;;6.30;4.70;;;13.00;99.90;;;;;;5011283;28;20388;-77
2022/08/12 13:51:09;;;;;;;5.10;4.60;;;13.00;99.90;;;;;;5010375;28;20042;-75
2022/08/12 13:53:38;;;;;;;6.88;4.40;;;13.00;99.90;;;;;;5014449;28;20041;-78
2022/08/12 13:56:10;;;;;;;5.97;4.63;;;13.00;99.90;;;;;;5014524;28;20196;-77
2022/08/12 13:58:49;;;;;;;5.28;4.00;;;12.90;99.90;;;;;;5010293;28;20026;-77
2022/08/12 14:01:22;;;;;;;7.10;5.30;;;12.90;99.90;;;;;;5010090;28;20135;-77
2022/08/12 14:03:49;;;;;;;6.35;5.07;;;12.90;99.90;;;;;;5022515;28;20034;-77
2022/08/12 14:06:17;;;;;;;6.90;5.28;;;12.90;99.90;;;;;;5013347;28;20407;-75
2022/08/12 14:08:44;;;;;;;7.30;4.93;;;12.90;99.90;;;;;;5029347;28;20044;-76
2022/08/12 14:11:11;;;;;;;6.75;5.60;;;12.90;99.90;;;;;;5014194;28;20049;-76
2022/08/12 14:13:39;;;;;;;8.25;5.82;;;12.80;99.90;;;;;;5020114;28;20029;-78
2022/08/12 14:16:09;;;;;;;5.85;5.03;;;12.80;99.90;;;;;;5018751;28;20081;-78
2022/08/12 14:18:38;;;;;;;7.28;5.72;;;12.80;99.90;;;;;;5014321;28;20046;-78
2022/08/12 14:21:14;;;;;;;5.88;4.90;;;12.80;99.90;;;;;;5012498;28;20435;-76
2022/08/12 14:23:43;;;;;;;7.95;5.53;;;12.80;99.90;;;;;;5020864;28;20510;-78
2022/08/12 14:26:15;;;;;;;9.73;7.60;;;12.80;99.90;;;;;;5016709;28;20080;-78
2022/08/12 14:28:43;;;;;;;9.93;7.38;;;12.80;99.90;;;;;;5022196;28;20026;-78
2022/08/12 14:31:14;;;;;;;10.50;6.95;;;12.80;99.90;;;;;;5016354;28;20030;-79
2022/08/12 14:33:48;;;;;;;10.40;6.85;;;12.80;99.90;;;;;;5019014;28;20124;-78
2022/08/12 14:36:21;;;;;;;8.25;5.88;;;12.80;99.90;;;;;;5013121;28;20025;-78
2022/08/12 14:38:52;;;;;;;7.72;5.90;;;12.80;99.90;;;;;;5013804;28;20124;-78
2022/08/12 14:41:22;;;;;;;9.45;6.13;;;12.80;99.90;;;;;;5012819;28;20468;-77
2022/08/12 14:43:50;;;;;;;6.05;5.43;;;12.70;99.90;;;;;;5020952;28;20083;-79
2022/08/12 14:46:20;;;;;;;8.27;5.57;;;12.80;99.90;;;;;;5015671;28;20109;-78
2022/08/12 14:48:50;;;;;;;22.08;15.15;;;12.70;99.90;;;;;;5013568;28;20076;-79
2022/08/12 14:51:20;;;;;;;16.08;10.77;;;12.70;99.90;;;;;;5017770;28;20464;-79
2022/08/12 14:53:49;;;;;;;11.93;9.30;;;12.70;99.90;;;;;;5019146;28;20035;-77
2022/08/12 14:56:19;;;;;;;10.32;7.47;;;12.70;99.90;;;;;;5009465;28;20465;-78